sensor_id;sensor_type;location;lat;lon;timestamp;pressure;altitude;pressure_sealevel;temperature;humidity
56084;BME280;41958;52.416;13.428;2023-02-14T00:01:23;103156.03;;;6.29;81.52
56084;BME280;41958;52.416;13.428;2023-02-14T00:03:48;103149.66;;;6.29;82.33
56084;BME280;41958;52.416;13.428;2023-02-14T00:06:14;103159.06;;;6.28;82.46
56084;BME280;41958;52.416;13.428;2023-02-14T00:08:41;103155.34;;;6.17;82.25
56084;BME280;41958;52.416;13.428;2023-02-14T00:11:08;103158.97;;;6.17;82.35
56084;BME280;41958;52.416;13.428;2023-02-14T00:13:34;103152.97;;;6.26;81.96
56084;BME280;41958;52.416;13.428;2023-02-14T00:15:59;103150.75;;;6.28;81.78
56084;BME280;41958;52.416;13.428;2023-02-14T00:18:25;103136.56;;;6.24;81.84
56084;BME280;41958;52.416;13.428;2023-02-14T00:21:10;103149.91;;;6.27;81.76
56084;BME280;41958;52.416;13.428;2023-02-14T00:23:35;103158.50;;;6.26;82.21
56084;BME280;41958;52.416;13.428;2023-02-14T00:26:00;103142.13;;;6.24;82.48
56084;BME280;41958;52.416;13.428;2023-02-14T00:28:26;103149.59;;;6.23;81.83
56084;BME280;41958;52.416;13.428;2023-02-14T00:30:51;103157.91;;;6.23;82.13
56084;BME280;41958;52.416;13.428;2023-02-14T00:33:16;103147.13;;;6.27;82.16
56084;BME280;41958;52.416;13.428;2023-02-14T00:35:41;103148.50;;;6.24;82.26
56084;BME280;41958;52.416;13.428;2023-02-14T00:38:07;103149.31;;;6.25;81.66
56084;BME280;41958;52.416;13.428;2023-02-14T00:40:32;103143.25;;;6.28;81.10
56084;BME280;41958;52.416;13.428;2023-02-14T00:42:57;103151.22;;;6.19;81.64
56084;BME280;41958;52.416;13.428;2023-02-14T00:45:22;103150.13;;;6.20;82.20
56084;BME280;41958;52.416;13.428;2023-02-14T00:47:48;103144.22;;;6.17;82.48
56084;BME280;41958;52.416;13.428;2023-02-14T00:50:13;103148.69;;;6.18;82.25
56084;BME280;41958;52.416;13.428;2023-02-14T00:52:38;103138.88;;;6.10;82.02
56084;BME280;41958;52.416;13.428;2023-02-14T00:55:03;103146.84;;;6.01;82.77
56084;BME280;41958;52.416;13.428;2023-02-14T00:57:29;103150.63;;;5.95;83.17
56084;BME280;41958;52.416;13.428;2023-02-14T00:59:54;103140.44;;;6.01;82.13
56084;BME280;41958;52.416;13.428;2023-02-14T01:02:19;103141.59;;;6.05;81.48
56084;BME280;41958;52.416;13.428;2023-02-14T01:04:44;103139.09;;;6.03;81.34
56084;BME280;41958;52.416;13.428;2023-02-14T01:07:10;103140.00;;;6.09;81.42
56084;BME280;41958;52.416;13.428;2023-02-14T01:09:35;103140.44;;;6.01;81.07
56084;BME280;41958;52.416;13.428;2023-02-14T01:12:00;103138.63;;;6.12;81.45
56084;BME280;41958;52.416;13.428;2023-02-14T01:14:25;103137.78;;;6.11;81.30
56084;BME280;41958;52.416;13.428;2023-02-14T01:16:51;103135.84;;;6.12;81.86
56084;BME280;41958;52.416;13.428;2023-02-14T01:19:16;103123.91;;;6.11;81.80
56084;BME280;41958;52.416;13.428;2023-02-14T01:21:41;103134.19;;;6.11;81.71
56084;BME280;41958;52.416;13.428;2023-02-14T01:24:07;103118.28;;;6.06;83.03
56084;BME280;41958;52.416;13.428;2023-02-14T01:26:34;103123.59;;;6.07;81.73
56084;BME280;41958;52.416;13.428;2023-02-14T01:28:59;103118.00;;;6.02;82.52
56084;BME280;41958;52.416;13.428;2023-02-14T01:31:27;103116.59;;;6.05;82.10
56084;BME280;41958;52.416;13.428;2023-02-14T01:33:53;103126.06;;;6.04;83.33
56084;BME280;41958;52.416;13.428;2023-02-14T01:36:26;103117.41;;;6.00;83.73
56084;BME280;41958;52.416;13.428;2023-02-14T01:38:53;103115.72;;;5.99;84.13
56084;BME280;41958;52.416;13.428;2023-02-14T01:41:19;103112.63;;;5.96;82.40
56084;BME280;41958;52.416;13.428;2023-02-14T01:44:02;103111.13;;;5.88;81.53
56084;BME280;41958;52.416;13.428;2023-02-14T01:46:30;103101.84;;;5.99;80.87
56084;BME280;41958;52.416;13.428;2023-02-14T01:49:00;103109.06;;;6.00;81.29
56084;BME280;41958;52.416;13.428;2023-02-14T01:51:27;103099.00;;;5.94;80.49
56084;BME280;41958;52.416;13.428;2023-02-14T01:53:53;103105.38;;;5.95;80.00
56084;BME280;41958;52.416;13.428;2023-02-14T01:56:24;103102.88;;;5.93;81.04
56084;BME280;41958;52.416;13.428;2023-02-14T01:58:54;103091.78;;;5.93;80.20
56084;BME280;41958;52.416;13.428;2023-02-14T02:01:22;103096.72;;;5.91;83.15
56084;BME280;41958;52.416;13.428;2023-02-14T02:03:54;103097.31;;;5.93;81.87
56084;BME280;41958;52.416;13.428;2023-02-14T02:06:28;103101.78;;;5.94;80.58
56084;BME280;41958;52.416;13.428;2023-02-14T02:09:10;103092.91;;;5.97;81.76
56084;BME280;41958;52.416;13.428;2023-02-14T02:11:36;103103.53;;;6.00;81.31
56084;BME280;41958;52.416;13.428;2023-02-14T02:14:03;103096.03;;;6.01;81.51
56084;BME280;41958;52.416;13.428;2023-02-14T02:19:16;103104.78;;;5.93;82.20
56084;BME280;41958;52.416;13.428;2023-02-14T02:24:51;103108.41;;;5.93;82.41
56084;BME280;41958;52.416;13.428;2023-02-14T02:27:25;103105.84;;;5.86;81.92
56084;BME280;41958;52.416;13.428;2023-02-14T02:30:21;103118.09;;;5.90;81.31
56084;BME280;41958;52.416;13.428;2023-02-14T02:36:10;103107.66;;;5.98;81.68
56084;BME280;41958;52.416;13.428;2023-02-14T02:38:56;103104.50;;;5.89;81.06
56084;BME280;41958;52.416;13.428;2023-02-14T02:44:38;103104.78;;;5.93;81.15
56084;BME280;41958;52.416;13.428;2023-02-14T02:47:24;103104.56;;;5.94;82.64
56084;BME280;41958;52.416;13.428;2023-02-14T02:50:07;103107.56;;;5.93;82.35
56084;BME280;41958;52.416;13.428;2023-02-14T02:53:18;103101.66;;;5.84;82.70
56084;BME280;41958;52.416;13.428;2023-02-14T02:55:52;103111.69;;;5.90;82.33
56084;BME280;41958;52.416;13.428;2023-02-14T02:58:51;103090.03;;;5.87;82.75
56084;BME280;41958;52.416;13.428;2023-02-14T03:01:25;103107.81;;;5.91;83.09
56084;BME280;41958;52.416;13.428;2023-02-14T03:03:56;103100.84;;;5.88;84.02
56084;BME280;41958;52.416;13.428;2023-02-14T03:06:43;103099.44;;;5.86;83.49
56084;BME280;41958;52.416;13.428;2023-02-14T03:09:56;103105.50;;;5.83;83.71
56084;BME280;41958;52.416;13.428;2023-02-14T03:12:05;103107.72;;;5.81;83.09
56084;BME280;41958;52.416;13.428;2023-02-14T03:14:50;103103.59;;;5.83;82.76
56084;BME280;41958;52.416;13.428;2023-02-14T03:17:36;103103.59;;;5.83;83.10
56084;BME280;41958;52.416;13.428;2023-02-14T03:20:15;103097.72;;;5.80;85.08
56084;BME280;41958;52.416;13.428;2023-02-14T03:22:56;103111.19;;;5.71;86.76
56084;BME280;41958;52.416;13.428;2023-02-14T03:25:55;103102.28;;;5.69;86.20
56084;BME280;41958;52.416;13.428;2023-02-14T03:28:51;103104.53;;;5.72;85.99
56084;BME280;41958;52.416;13.428;2023-02-14T03:34:00;103089.50;;;5.68;86.61
56084;BME280;41958;52.416;13.428;2023-02-14T03:36:39;103094.81;;;5.69;85.68
56084;BME280;41958;52.416;13.428;2023-02-14T03:39:23;103104.44;;;5.62;86.61
56084;BME280;41958;52.416;13.428;2023-02-14T03:42:00;103096.84;;;5.79;84.29
56084;BME280;41958;52.416;13.428;2023-02-14T03:44:29;103101.91;;;5.82;84.00
56084;BME280;41958;52.416;13.428;2023-02-14T03:47:04;103095.84;;;5.85;84.02
56084;BME280;41958;52.416;13.428;2023-02-14T03:49:34;103101.91;;;5.82;83.86
56084;BME280;41958;52.416;13.428;2023-02-14T03:52:01;103105.84;;;5.86;83.48
56084;BME280;41958;52.416;13.428;2023-02-14T03:54:29;103104.56;;;5.94;82.50
56084;BME280;41958;52.416;13.428;2023-02-14T03:57:21;103104.28;;;5.96;82.65
56084;BME280;41958;52.416;13.428;2023-02-14T03:59:47;103089.25;;;5.91;84.33
56084;BME280;41958;52.416;13.428;2023-02-14T04:02:25;103101.38;;;5.85;86.39
56084;BME280;41958;52.416;13.428;2023-02-14T04:04:52;103094.41;;;5.83;86.17
56084;BME280;41958;52.416;13.428;2023-02-14T04:07:20;103083.78;;;5.74;86.88
56084;BME280;41958;52.416;13.428;2023-02-14T04:09:47;103097.38;;;5.76;86.43
56084;BME280;41958;52.416;13.428;2023-02-14T04:12:13;103095.13;;;5.73;86.72
56084;BME280;41958;52.416;13.428;2023-02-14T04:14:39;103092.88;;;5.70;88.60
56084;BME280;41958;52.416;13.428;2023-02-14T04:17:04;103096.75;;;5.69;88.08
56084;BME280;41958;52.416;13.428;2023-02-14T04:19:48;103085.91;;;5.67;87.32
56084;BME280;41958;52.416;13.428;2023-02-14T04:22:14;103090.03;;;5.65;87.40
56084;BME280;41958;52.416;13.428;2023-02-14T04:24:39;103093.06;;;5.63;87.68
56084;BME280;41958;52.416;13.428;2023-02-14T04:27:05;103087.06;;;5.49;90.35
56084;BME280;41958;52.416;13.428;2023-02-14T04:29:44;103093.47;;;5.50;90.37
56084;BME280;41958;52.416;13.428;2023-02-14T04:32:14;103095.06;;;5.46;90.22
56084;BME280;41958;52.416;13.428;2023-02-14T04:34:39;103084.72;;;5.41;90.73
56084;BME280;41958;52.416;13.428;2023-02-14T04:37:05;103086.06;;;5.38;90.90
56084;BME280;41958;52.416;13.428;2023-02-14T04:39:31;103085.59;;;5.42;89.87
56084;BME280;41958;52.416;13.428;2023-02-14T04:41:56;103080.34;;;5.45;89.53
56084;BME280;41958;52.416;13.428;2023-02-14T04:44:21;103090.94;;;5.48;89.67
56084;BME280;41958;52.416;13.428;2023-02-14T04:46:47;103086.75;;;5.46;90.40
56084;BME280;41958;52.416;13.428;2023-02-14T04:49:12;103083.91;;;5.40;91.36
56084;BME280;41958;52.416;13.428;2023-02-14T04:51:37;103083.06;;;5.40;90.78
56084;BME280;41958;52.416;13.428;2023-02-14T04:54:03;103079.44;;;5.39;89.94
56084;BME280;41958;52.416;13.428;2023-02-14T04:56:28;103080.31;;;5.40;89.88
56084;BME280;41958;52.416;13.428;2023-02-14T04:58:54;103063.50;;;5.30;91.20
56084;BME280;41958;52.416;13.428;2023-02-14T05:01:19;103087.19;;;5.37;91.47
56084;BME280;41958;52.416;13.428;2023-02-14T05:03:44;103074.69;;;5.35;91.70
56084;BME280;41958;52.416;13.428;2023-02-14T05:06:09;103078.03;;;5.37;90.89
56084;BME280;41958;52.416;13.428;2023-02-14T05:08:35;103074.75;;;5.40;90.46
56084;BME280;41958;52.416;13.428;2023-02-14T05:11:00;103066.63;;;5.33;90.80
56084;BME280;41958;52.416;13.428;2023-02-14T05:13:25;103079.88;;;5.31;92.19
56084;BME280;41958;52.416;13.428;2023-02-14T05:15:50;103073.25;;;5.32;91.61
56084;BME280;41958;52.416;13.428;2023-02-14T05:18:15;103073.53;;;5.31;90.63
56084;BME280;41958;52.416;13.428;2023-02-14T05:20:41;103065.78;;;5.33;90.31
56084;BME280;41958;52.416;13.428;2023-02-14T05:23:06;103065.50;;;5.34;90.07
56084;BME280;41958;52.416;13.428;2023-02-14T05:25:37;103062.16;;;5.32;88.92
56084;BME280;41958;52.416;13.428;2023-02-14T05:28:03;103068.06;;;5.36;89.35
56084;BME280;41958;52.416;13.428;2023-02-14T05:30:28;103057.19;;;5.34;88.63
56084;BME280;41958;52.416;13.428;2023-02-14T05:32:54;103054.19;;;5.36;88.86
56084;BME280;41958;52.416;13.428;2023-02-14T05:35:19;103048.94;;;5.39;88.95
56084;BME280;41958;52.416;13.428;2023-02-14T05:37:44;103044.19;;;5.35;90.39
56084;BME280;41958;52.416;13.428;2023-02-14T05:40:10;103057.78;;;5.36;89.72
56084;BME280;41958;52.416;13.428;2023-02-14T05:42:38;103050.28;;;5.37;89.53
56084;BME280;41958;52.416;13.428;2023-02-14T05:45:04;103052.81;;;5.38;90.44
56084;BME280;41958;52.416;13.428;2023-02-14T05:47:29;103058.31;;;5.33;91.47
56084;BME280;41958;52.416;13.428;2023-02-14T05:49:55;103056.22;;;5.23;92.41
56084;BME280;41958;52.416;13.428;2023-02-14T05:52:20;103057.63;;;5.26;91.43
56084;BME280;41958;52.416;13.428;2023-02-14T05:54:45;103062.78;;;5.17;90.96
56084;BME280;41958;52.416;13.428;2023-02-14T05:57:10;103058.41;;;5.21;90.30
56084;BME280;41958;52.416;13.428;2023-02-14T05:59:35;103055.47;;;5.28;90.78
56084;BME280;41958;52.416;13.428;2023-02-14T06:02:01;103053.50;;;5.29;91.51
56084;BME280;41958;52.416;13.428;2023-02-14T06:04:26;103057.72;;;5.31;91.33
56084;BME280;41958;52.416;13.428;2023-02-14T06:06:51;103059.13;;;5.34;91.86
56084;BME280;41958;52.416;13.428;2023-02-14T06:09:16;103057.97;;;5.30;91.81
56084;BME280;41958;52.416;13.428;2023-02-14T06:11:43;103057.97;;;5.30;91.32
56084;BME280;41958;52.416;13.428;2023-02-14T06:14:09;103064.34;;;5.30;91.04
56084;BME280;41958;52.416;13.428;2023-02-14T06:16:34;103062.09;;;5.27;91.58
56084;BME280;41958;52.416;13.428;2023-02-14T06:18:59;103074.22;;;5.21;92.27
56084;BME280;41958;52.416;13.428;2023-02-14T06:21:24;103067.56;;;5.22;90.54
56084;BME280;41958;52.416;13.428;2023-02-14T06:23:50;103068.16;;;5.24;90.27
56084;BME280;41958;52.416;13.428;2023-02-14T06:26:16;103058.16;;;5.23;91.34
56084;BME280;41958;52.416;13.428;2023-02-14T06:28:41;103071.13;;;5.17;92.50
56084;BME280;41958;52.416;13.428;2023-02-14T06:31:06;103068.41;;;5.22;92.42
56084;BME280;41958;52.416;13.428;2023-02-14T06:33:32;103069.25;;;5.23;91.85
56084;BME280;41958;52.416;13.428;2023-02-14T06:35:57;103067.06;;;5.25;91.40
56084;BME280;41958;52.416;13.428;2023-02-14T06:38:22;103074.03;;;5.28;91.48
56084;BME280;41958;52.416;13.428;2023-02-14T06:40:47;103052.47;;;5.13;90.94
56084;BME280;41958;52.416;13.428;2023-02-14T06:43:14;103073.06;;;5.17;91.88
56084;BME280;41958;52.416;13.428;2023-02-14T06:45:39;103073.81;;;5.12;92.84
56084;BME280;41958;52.416;13.428;2023-02-14T06:48:07;103071.13;;;5.17;93.34
56084;BME280;41958;52.416;13.428;2023-02-14T06:50:32;103069.25;;;5.23;91.46
56084;BME280;41958;52.416;13.428;2023-02-14T06:52:58;103072.34;;;5.27;90.76
56084;BME280;41958;52.416;13.428;2023-02-14T06:55:24;103071.91;;;5.35;90.35
56084;BME280;41958;52.416;13.428;2023-02-14T06:57:49;103070.31;;;5.39;90.78
56084;BME280;41958;52.416;13.428;2023-02-14T07:00:15;103065.00;;;5.37;90.57
56084;BME280;41958;52.416;13.428;2023-02-14T07:02:40;103071.84;;;5.30;91.17
56084;BME280;41958;52.416;13.428;2023-02-14T07:05:05;103064.13;;;5.32;90.88
56084;BME280;41958;52.416;13.428;2023-02-14T07:07:31;103071.66;;;5.36;90.79
56084;BME280;41958;52.416;13.428;2023-02-14T07:09:56;103041.94;;;5.32;90.07
56084;BME280;41958;52.416;13.428;2023-02-14T07:12:21;103071.47;;;5.43;90.20
56084;BME280;41958;52.416;13.428;2023-02-14T07:14:46;103061.78;;;5.46;88.98
56084;BME280;41958;52.416;13.428;2023-02-14T07:17:12;103059.59;;;5.48;90.07
56084;BME280;41958;52.416;13.428;2023-02-14T07:19:37;103056.31;;;5.51;90.96
56084;BME280;41958;52.416;13.428;2023-02-14T07:22:02;103066.00;;;5.48;91.89
56084;BME280;41958;52.416;13.428;2023-02-14T07:24:27;103059.00;;;5.46;91.99
56084;BME280;41958;52.416;13.428;2023-02-14T07:26:53;103048.38;;;5.37;92.21
56084;BME280;41958;52.416;13.428;2023-02-14T07:29:18;103061.25;;;5.49;91.38
56084;BME280;41958;52.416;13.428;2023-02-14T07:31:43;103063.59;;;5.57;91.22
56084;BME280;41958;52.416;13.428;2023-02-14T07:34:08;103065.59;;;5.62;90.16
56084;BME280;41958;52.416;13.428;2023-02-14T07:36:36;103060.63;;;5.64;89.90
56084;BME280;41958;52.416;13.428;2023-02-14T07:39:01;103060.94;;;5.67;89.03
56084;BME280;41958;52.416;13.428;2023-02-14T07:41:26;103072.69;;;5.74;89.47
56084;BME280;41958;52.416;13.428;2023-02-14T07:43:51;103067.75;;;5.82;89.78
56084;BME280;41958;52.416;13.428;2023-02-14T07:46:17;103051.84;;;5.72;89.32
56084;BME280;41958;52.416;13.428;2023-02-14T07:48:42;103064.75;;;5.83;89.00
56084;BME280;41958;52.416;13.428;2023-02-14T07:51:07;103051.31;;;5.75;88.35
56084;BME280;41958;52.416;13.428;2023-02-14T07:53:32;103054.66;;;5.77;88.19
56084;BME280;41958;52.416;13.428;2023-02-14T07:55:58;103062.25;;;5.87;87.84
56084;BME280;41958;52.416;13.428;2023-02-14T07:58:23;103060.56;;;5.81;87.55
56084;BME280;41958;52.416;13.428;2023-02-14T08:00:48;103048.13;;;5.88;87.35
56084;BME280;41958;52.416;13.428;2023-02-14T08:03:15;103060.72;;;5.96;87.75
56084;BME280;41958;52.416;13.428;2023-02-14T08:05:40;103063.75;;;5.95;87.42
56084;BME280;41958;52.416;13.428;2023-02-14T08:08:05;103061.53;;;5.97;88.33
56084;BME280;41958;52.416;13.428;2023-02-14T08:10:31;103062.47;;;6.02;89.66
56084;BME280;41958;52.416;13.428;2023-02-14T08:12:56;103067.72;;;5.99;87.62
56084;BME280;41958;52.416;13.428;2023-02-14T08:15:28;103075.03;;;6.10;86.06
56084;BME280;41958;52.416;13.428;2023-02-14T08:18:13;103079.81;;;6.15;85.44
56084;BME280;41958;52.416;13.428;2023-02-14T08:20:38;103067.84;;;6.14;86.08
56084;BME280;41958;52.416;13.428;2023-02-14T08:23:04;103078.25;;;6.24;85.41
56084;BME280;41958;52.416;13.428;2023-02-14T08:25:29;103075.81;;;6.33;84.80
56084;BME280;41958;52.416;13.428;2023-02-14T08:27:54;103075.88;;;6.38;84.58
56084;BME280;41958;52.416;13.428;2023-02-14T08:30:20;103082.47;;;6.32;85.07
56084;BME280;41958;52.416;13.428;2023-02-14T08:32:46;103088.94;;;6.43;83.38
56084;BME280;41958;52.416;13.428;2023-02-14T08:35:11;103092.38;;;6.50;84.03
56084;BME280;41958;52.416;13.428;2023-02-14T08:37:36;103092.38;;;6.50;83.29
56084;BME280;41958;52.416;13.428;2023-02-14T08:40:01;103087.16;;;6.58;81.78
56084;BME280;41958;52.416;13.428;2023-02-14T08:42:27;103093.31;;;6.66;81.52
56084;BME280;41958;52.416;13.428;2023-02-14T08:44:53;103095.59;;;6.69;83.00
56084;BME280;41958;52.416;13.428;2023-02-14T08:47:18;103096.38;;;6.64;82.42
56084;BME280;41958;52.416;13.428;2023-02-14T08:49:44;103095.75;;;6.57;83.28
56084;BME280;41958;52.416;13.428;2023-02-14T08:52:09;103096.03;;;6.55;83.39
56084;BME280;41958;52.416;13.428;2023-02-14T08:54:34;103094.13;;;6.61;83.71
56084;BME280;41958;52.416;13.428;2023-02-14T08:56:59;103089.50;;;6.72;82.55
56084;BME280;41958;52.416;13.428;2023-02-14T08:59:27;103089.88;;;6.86;80.53
56084;BME280;41958;52.416;13.428;2023-02-14T09:01:52;103095.59;;;6.74;81.47
56084;BME280;41958;52.416;13.428;2023-02-14T09:04:18;103093.16;;;6.78;80.69
56084;BME280;41958;52.416;13.428;2023-02-14T09:06:43;103093.97;;;6.78;80.70
56084;BME280;41958;52.416;13.428;2023-02-14T09:09:08;103097.94;;;6.87;79.76
56084;BME280;41958;52.416;13.428;2023-02-14T09:11:33;103094.38;;;6.97;79.56
56084;BME280;41958;52.416;13.428;2023-02-14T09:13:59;103099.44;;;7.00;80.26
56084;BME280;41958;52.416;13.428;2023-02-14T09:16:24;103081.31;;;6.92;80.79
56084;BME280;41958;52.416;13.428;2023-02-14T09:18:51;103099.22;;;7.07;80.79
56084;BME280;41958;52.416;13.428;2023-02-14T09:21:19;103100.63;;;7.15;80.49
56084;BME280;41958;52.416;13.428;2023-02-14T09:23:45;103091.88;;;6.96;79.48
56084;BME280;41958;52.416;13.428;2023-02-14T09:26:12;103099.34;;;6.90;79.56
56084;BME280;41958;52.416;13.428;2023-02-14T09:28:38;103097.22;;;7.02;79.50
56084;BME280;41958;52.416;13.428;2023-02-14T09:31:23;103091.41;;;7.09;79.22
56084;BME280;41958;52.416;13.428;2023-02-14T09:33:50;103093.88;;;7.00;78.97
56084;BME280;41958;52.416;13.428;2023-02-14T09:36:15;103094.53;;;7.18;78.22
56084;BME280;41958;52.416;13.428;2023-02-14T09:38:41;103101.53;;;7.20;78.35
56084;BME280;41958;52.416;13.428;2023-02-14T09:41:08;103096.22;;;7.24;77.84
56084;BME280;41958;52.416;13.428;2023-02-14T09:43:44;103100.38;;;7.16;78.67
56084;BME280;41958;52.416;13.428;2023-02-14T09:46:13;103094.59;;;7.28;77.51
56084;BME280;41958;52.416;13.428;2023-02-14T09:48:42;103107.41;;;7.29;78.57
56084;BME280;41958;52.416;13.428;2023-02-14T09:51:14;103106.84;;;7.27;79.12
56084;BME280;41958;52.416;13.428;2023-02-14T09:53:49;103106.94;;;7.48;78.10
56084;BME280;41958;52.416;13.428;2023-02-14T09:56:30;103107.13;;;7.31;79.04
56084;BME280;41958;52.416;13.428;2023-02-14T10:01:42;103107.31;;;7.14;80.47
56084;BME280;41958;52.416;13.428;2023-02-14T10:04:25;103101.78;;;7.24;79.77
56084;BME280;41958;52.416;13.428;2023-02-14T10:07:05;103104.88;;;7.28;79.26
56084;BME280;41958;52.416;13.428;2023-02-14T10:09:45;103103.78;;;7.29;78.46
56084;BME280;41958;52.416;13.428;2023-02-14T10:12:29;103103.00;;;7.38;79.53
56084;BME280;41958;52.416;13.428;2023-02-14T10:14:59;103098.25;;;7.39;77.89
56084;BME280;41958;52.416;13.428;2023-02-14T10:19:59;103105.66;;;7.18;77.25
56084;BME280;41958;52.416;13.428;2023-02-14T10:22:36;103097.78;;;7.52;76.89
56084;BME280;41958;52.416;13.428;2023-02-14T10:25:14;103107.50;;;7.50;76.80
56084;BME280;41958;52.416;13.428;2023-02-14T10:27:46;103105.00;;;7.48;76.80
56084;BME280;41958;52.416;13.428;2023-02-14T10:30:12;103092.53;;;7.56;75.59
56084;BME280;41958;52.416;13.428;2023-02-14T10:33:11;103089.78;;;7.61;75.18
56084;BME280;41958;52.416;13.428;2023-02-14T10:35:47;103089.19;;;7.59;76.60
56084;BME280;41958;52.416;13.428;2023-02-14T10:38:43;103078.53;;;7.46;76.77
56084;BME280;41958;52.416;13.428;2023-02-14T10:41:22;103092.44;;;7.35;78.99
56084;BME280;41958;52.416;13.428;2023-02-14T10:47:30;103087.13;;;7.39;78.51
56084;BME280;41958;52.416;13.428;2023-02-14T10:50:15;103085.00;;;7.56;77.61
56084;BME280;41958;52.416;13.428;2023-02-14T10:55:55;103095.50;;;7.44;77.75
56084;BME280;41958;52.416;13.428;2023-02-14T10:58:25;103089.25;;;7.69;75.37
56084;BME280;41958;52.416;13.428;2023-02-14T11:00:53;103083.38;;;7.66;76.59
56084;BME280;41958;52.416;13.428;2023-02-14T11:03:21;103079.78;;;7.75;75.17
56084;BME280;41958;52.416;13.428;2023-02-14T11:05:47;103084.00;;;7.88;74.84
56084;BME280;41958;52.416;13.428;2023-02-14T11:10:51;103086.44;;;7.64;75.77
56084;BME280;41958;52.416;13.428;2023-02-14T11:13:28;103081.09;;;7.52;77.24
56084;BME280;41958;52.416;13.428;2023-02-14T11:15:58;103075.25;;;7.54;76.44
56084;BME280;41958;52.416;13.428;2023-02-14T11:18:25;103071.09;;;7.62;76.05
56084;BME280;41958;52.416;13.428;2023-02-14T11:21:11;103075.00;;;7.60;75.59
56084;BME280;41958;52.416;13.428;2023-02-14T11:23:40;103065.28;;;7.68;75.01
56084;BME280;41958;52.416;13.428;2023-02-14T11:26:15;103073.13;;;7.76;75.56
56084;BME280;41958;52.416;13.428;2023-02-14T11:28:49;103059.69;;;7.58;75.18
56084;BME280;41958;52.416;13.428;2023-02-14T11:31:24;103056.13;;;7.68;75.03
56084;BME280;41958;52.416;13.428;2023-02-14T11:33:49;103066.66;;;7.60;76.85
56084;BME280;41958;52.416;13.428;2023-02-14T11:36:15;103065.00;;;7.65;76.64
56084;BME280;41958;52.416;13.428;2023-02-14T11:38:42;103054.13;;;7.63;76.07
56084;BME280;41958;52.416;13.428;2023-02-14T11:41:12;103061.69;;;7.73;75.97
56084;BME280;41958;52.416;13.428;2023-02-14T11:43:41;103058.41;;;7.91;73.70
56084;BME280;41958;52.416;13.428;2023-02-14T11:46:24;103054.19;;;7.73;74.16
56084;BME280;41958;52.416;13.428;2023-02-14T11:49:04;103062.16;;;7.49;75.89
56084;BME280;41958;52.416;13.428;2023-02-14T11:51:41;103061.41;;;7.69;75.97
56084;BME280;41958;52.416;13.428;2023-02-14T11:54:12;103064.50;;;7.83;75.01
56084;BME280;41958;52.416;13.428;2023-02-14T11:56:53;103062.25;;;7.75;75.45
56084;BME280;41958;52.416;13.428;2023-02-14T12:02:03;103047.16;;;7.55;77.62
56084;BME280;41958;52.416;13.428;2023-02-14T12:04:38;103050.53;;;7.63;75.53
56084;BME280;41958;52.416;13.428;2023-02-14T12:07:28;103046.09;;;7.67;76.08
56084;BME280;41958;52.416;13.428;2023-02-14T12:12:49;103039.69;;;7.71;75.46
56084;BME280;41958;52.416;13.428;2023-02-14T12:15:31;103032.44;;;7.60;77.17
56084;BME280;41958;52.416;13.428;2023-02-14T12:21:05;103025.75;;;7.61;77.81
56084;BME280;41958;52.416;13.428;2023-02-14T12:26:26;103014.06;;;7.59;78.85
56084;BME280;41958;52.416;13.428;2023-02-14T12:29:15;103009.31;;;7.59;78.23
56084;BME280;41958;52.416;13.428;2023-02-14T12:31:43;103006.56;;;7.70;77.26
56084;BME280;41958;52.416;13.428;2023-02-14T12:34:11;103001.31;;;7.73;75.58
56084;BME280;41958;52.416;13.428;2023-02-14T12:37:11;102994.84;;;7.52;77.28
56084;BME280;41958;52.416;13.428;2023-02-14T12:42:35;102988.72;;;7.60;78.65
56084;BME280;41958;52.416;13.428;2023-02-14T12:45:24;102975.91;;;7.59;76.81
56084;BME280;41958;52.416;13.428;2023-02-14T12:48:16;102979.00;;;7.63;76.90
56084;BME280;41958;52.416;13.428;2023-02-14T12:51:01;102981.50;;;7.65;77.20
56084;BME280;41958;52.416;13.428;2023-02-14T12:56:49;102973.44;;;7.68;76.40
56084;BME280;41958;52.416;13.428;2023-02-14T12:59:28;102975.38;;;7.57;78.59
56084;BME280;41958;52.416;13.428;2023-02-14T13:04:52;102955.56;;;7.49;78.30
56084;BME280;41958;52.416;13.428;2023-02-14T13:07:31;102966.66;;;7.33;79.56
56084;BME280;41958;52.416;13.428;2023-02-14T13:10:16;102941.91;;;7.32;79.34
56084;BME280;41958;52.416;13.428;2023-02-14T13:12:51;102963.94;;;7.54;79.26
56084;BME280;41958;52.416;13.428;2023-02-14T13:15:26;102958.91;;;7.46;79.50
56084;BME280;41958;52.416;13.428;2023-02-14T13:18:33;102951.09;;;7.32;79.91
56084;BME280;41958;52.416;13.428;2023-02-14T13:21:04;102954.72;;;7.43;80.39
56084;BME280;41958;52.416;13.428;2023-02-14T13:23:40;102954.72;;;7.43;80.40
56084;BME280;41958;52.416;13.428;2023-02-14T13:26:16;102951.09;;;7.37;78.73
56084;BME280;41958;52.416;13.428;2023-02-14T13:28:49;102948.53;;;7.15;79.25
56084;BME280;41958;52.416;13.428;2023-02-14T13:31:16;102953.06;;;7.37;78.80
56084;BME280;41958;52.416;13.428;2023-02-14T13:33:51;102953.06;;;7.47;79.33
56084;BME280;41958;52.416;13.428;2023-02-14T13:36:18;102944.44;;;7.38;80.34
56084;BME280;41958;52.416;13.428;2023-02-14T13:38:54;102939.97;;;7.32;79.80
56084;BME280;41958;52.416;13.428;2023-02-14T13:41:21;102945.47;;;7.17;80.38
56084;BME280;41958;52.416;13.428;2023-02-14T13:43:53;102948.56;;;7.20;80.41
56084;BME280;41958;52.416;13.428;2023-02-14T13:47:06;102943.03;;;7.31;80.06
56084;BME280;41958;52.416;13.428;2023-02-14T13:49:30;102936.34;;;7.26;80.33
56084;BME280;41958;52.416;13.428;2023-02-14T13:51:59;102935.78;;;7.30;79.87
56084;BME280;41958;52.416;13.428;2023-02-14T13:54:42;102941.41;;;7.45;79.92
56084;BME280;41958;52.416;13.428;2023-02-14T13:57:29;102946.41;;;7.48;79.11